Wind Cave National Park, SD

2:29 PM MDT on July 24, 2014 (GMT -0600)
Custer County (KCUT) Elev 5600 ft | 43.73 °N, 103.62 °W | Change Station

Current weather conditions updated 36 minutes ago

Clear
Clear
93 °F
Feels Like 93 °F
N
16
Wind Variable Wind from West
Gusts 24 mph

Today is forecast to be Much Warmer than yesterday.

Today
High -- | Low -- °F
--% Chance of Precip.
Yesterday
High -- | Low -- °F
Precip. -- in
5:35 AM 8:26 PM
Waning Crescent, 4% visible
Pressure 29.73 in
Visibility 10.0 miles
Clouds Clear
Dew Point 44 °F
Humidity 18%
Rainfall 0.00 in
Snow Depth Not available.
UV 11 out of 12
Pollen 6.90 out of 12
Air Quality Not available.
Flu Activity Not available.
METAR KCUT 241953Z AUTO 28014G21KT 10SM CLR 34/07 A2999 RMK AO2 SLP065 T03390067

More Conditions Fewer Conditions

Pressure 29.73 in
Visibility 10.0 miles
Clouds Clear
Dew Point 44 °F
Humidity 18%
Rainfall 0.00 in
Snow Depth Not available.
UV 11 out of 12
Pollen 6.90 out of 12
Air Quality Not available.
Flu Activity Not available.
METAR KCUT 241953Z AUTO 28014G21KT 10SM CLR 34/07 A2999 RMK AO2 SLP065 T03390067

More Conditions Fewer Conditions

10-Day Weather Forecast

Almanac

Astronomy

Jul. 24, 2014 Rise Set
Actual Time 5:35 AM MDT 8:26 PM MDT
Civil Twilight 5:01 AM MDT 9:00 PM MDT
Nautical Twilight 4:18 AM MDT 9:42 PM MDT
Astronomical Twilight 3:28 AM MDT 10:32 PM MDT
Moon 3:45 AM MDT 6:42 PM MDT
Length of Visible Light 15h 58m
Length of Day
14h 51m
Tomorrow will be 2m 1s shorter.
Waning Crescent, 4% of the Moon is Illuminated
Today
Waning Crescent
Jul 26
New
Aug 3
First Quarter
Aug 10
Full
Aug 17
Last Quarter

Today's Extremes

State Highs State Lows

Community

WunderPhotos

Upload Photos

1,737,116 photos uploaded!

Nearby

Snow Depth

Station Depth Elevation
Blind Park 0 in 6890 ft

Earthquake Activity

City Distance Mag. Time & Date
No recent earthquake activity has been reported nearby.
Minimum magnitude displayed is 2.5.

Coastal Water Temperatures

Place Temperature
No Stations Reporting

Nearby Weather Stations

Station Location Temp. Heat Index Dew Point Humidity Wind Precip. Elev Updated Type
RAWS CUSTER SD, Custer, SD 90 °F 87 °F 50 °F 26% West  at  6 mph 0.00 in / hr 5820 ft 1:24 PM MDT MADIS
RAWS BAKER PARK SD, Keystone, SD 89 °F 91 °F 65 °F 45% East  at  6 mph 0.00 in / hr 4673 ft 1:35 PM MDT MADIS
RAWS RED CANYON SD, Edgemont, SD 98 °F 95 °F 50 °F 20% SSW  at  4 mph 0.00 in / hr 4644 ft 12:57 PM MDT MADIS
RAWS BKF3 PORTABLE SD, Hill City, SD 86 °F 83 °F 46 °F 25% WSW  at  6 mph 0.00 in / hr 6629 ft 1:36 PM MDT MADIS
Mike's Place Black Hills, Hermosa, SD 86.3 °F 91 °F 70 °F 59% NE  at  2.0 mph 0.00 in / hr 4009 ft 2:24 PM MDT Normal
HADS BEAVER CREEK NEAR BUFFALO GAP 2S SD, Buffalo Gap, SD 97 °F 92 °F - - North  at  - 0.00 in / hr 3149 ft 12:45 PM MDT MADIS

Show More Stations Show Fewer Stations